createdAt,value
2022-12-22T00:02:09.941Z,68.20
2022-12-22T00:05:36.103Z,61.08
2022-12-22T00:09:03.659Z,57.83
2022-12-22T00:12:31.909Z,61.37
2022-12-22T00:15:54.164Z,58.97
2022-12-22T00:19:15.934Z,58.38
2022-12-22T00:22:42.874Z,54.92
2022-12-22T00:26:05.306Z,49.58
2022-12-22T00:29:33.286Z,54.38
2022-12-22T00:32:56.973Z,52.70
2022-12-22T00:36:18.898Z,49.60
2022-12-22T00:39:40.936Z,51.80
2022-12-22T00:43:02.762Z,50.85
2022-12-22T00:46:24.802Z,59.57
2022-12-22T00:49:48.801Z,54.10
2022-12-22T00:53:10.772Z,51.08
2022-12-22T00:56:32.387Z,53.85
2022-12-22T00:59:54.535Z,53.85
2022-12-22T01:03:16.476Z,50.03
2022-12-22T01:06:38.561Z,46.88
2022-12-22T01:10:04.455Z,46.53
2022-12-22T01:13:33.696Z,52.85
2022-12-22T01:16:55.734Z,48.95
2022-12-22T01:20:17.238Z,46.87
2022-12-22T01:23:39.327Z,52.80
2022-12-22T01:27:01.230Z,51.63
2022-12-22T01:30:23.173Z,48.35
2022-12-22T01:33:44.898Z,47.53
2022-12-22T01:37:06.545Z,52.58
2022-12-22T01:40:35.076Z,53.80
2022-12-22T01:43:58.387Z,54.50
2022-12-22T01:47:48.376Z,57.17
2022-12-22T01:51:10.669Z,52.92
2022-12-22T01:54:33.364Z,73.88
2022-12-22T01:57:56.411Z,57.63
2022-12-22T02:01:18.557Z,62.58
2022-12-22T02:04:45.079Z,62.03
2022-12-22T02:08:32.839Z,53.83
2022-12-22T02:12:00.488Z,54.05
2022-12-22T02:15:34.007Z,56.53
2022-12-22T02:19:16.249Z,66.00
2022-12-22T02:22:58.311Z,57.33
2022-12-22T02:26:47.942Z,59.90
2022-12-22T02:30:15.483Z,63.58
2022-12-22T02:33:38.915Z,64.70
2022-12-22T02:37:10.404Z,68.55
2022-12-22T02:40:47.704Z,55.15
2022-12-22T02:44:12.393Z,63.83
2022-12-22T02:47:53.839Z,61.15
2022-12-22T02:51:32.901Z,60.78
2022-12-22T02:54:54.888Z,68.00
2022-12-22T02:58:18.949Z,70.75
2022-12-22T03:01:41.159Z,67.78
2022-12-22T03:05:03.415Z,67.38
2022-12-22T03:08:25.272Z,71.70
2022-12-22T03:11:47.293Z,74.55
2022-12-22T03:15:09.239Z,78.82
2022-12-22T03:18:31.493Z,71.97
2022-12-22T03:21:53.272Z,69.35
2022-12-22T03:25:14.773Z,69.15
2022-12-22T03:28:17.957Z,76.33
2022-12-22T03:31:21.619Z,72.68
2022-12-22T03:34:24.967Z,73.43
2022-12-22T03:37:28.110Z,69.72
2022-12-22T03:40:33.292Z,72.70
2022-12-22T03:43:54.925Z,68.80
2022-12-22T03:46:58.178Z,66.10
2022-12-22T03:50:01.381Z,69.77
2022-12-22T03:53:05.120Z,73.53
2022-12-22T03:56:08.557Z,64.47
2022-12-22T03:59:12.601Z,62.63
2022-12-22T04:02:16.005Z,69.97
2022-12-22T04:05:19.219Z,67.38
2022-12-22T04:08:22.382Z,70.38
2022-12-22T04:11:44.264Z,60.70
2022-12-22T04:14:47.359Z,68.32
2022-12-22T04:17:50.644Z,63.97
2022-12-22T04:20:53.998Z,64.50
2022-12-22T04:23:57.309Z,74.10
2022-12-22T04:27:00.546Z,61.85
2022-12-22T04:30:06.285Z,68.53
2022-12-22T04:33:09.489Z,60.20
2022-12-22T04:36:13.704Z,73.32
2022-12-22T04:39:16.932Z,64.88
2022-12-22T04:42:22.618Z,75.15
2022-12-22T04:45:25.896Z,70.15
2022-12-22T04:48:33.161Z,62.63
2022-12-22T04:51:36.550Z,72.63
2022-12-22T04:54:39.734Z,66.13
2022-12-22T04:57:42.948Z,64.38
2022-12-22T05:00:46.432Z,73.47
2022-12-22T05:03:49.771Z,66.53
2022-12-22T05:06:53.046Z,72.45
2022-12-22T05:09:56.326Z,67.28
2022-12-22T05:12:59.937Z,75.40
2022-12-22T05:16:05.615Z,71.18
2022-12-22T05:19:08.837Z,65.78
2022-12-22T05:22:12.226Z,65.10
2022-12-22T05:25:17.206Z,70.43
2022-12-22T05:28:20.367Z,65.30
2022-12-22T05:31:25.196Z,70.60
2022-12-22T05:34:28.699Z,69.32
2022-12-22T05:37:31.857Z,72.93
2022-12-22T05:40:35.285Z,76.45
2022-12-22T05:43:39.077Z,74.55
2022-12-22T05:46:42.473Z,72.80
2022-12-22T05:49:46.376Z,63.85
2022-12-22T05:52:49.738Z,63.53
2022-12-22T05:55:53.091Z,71.88
2022-12-22T05:58:59.758Z,72.57
2022-12-22T06:02:03.744Z,68.13
2022-12-22T06:05:07.909Z,67.20
2022-12-22T06:08:11.161Z,67.22
2022-12-22T06:11:18.221Z,65.22
2022-12-22T06:14:21.465Z,64.95
2022-12-22T06:17:24.697Z,69.80
2022-12-22T06:20:28.530Z,68.32
2022-12-22T06:23:31.775Z,71.33
2022-12-22T06:26:35.063Z,64.65
2022-12-22T06:29:38.422Z,68.35
2022-12-22T06:32:42.141Z,64.47
2022-12-22T06:35:45.321Z,70.10
2022-12-22T06:38:48.535Z,70.80
2022-12-22T06:42:10.662Z,67.10
2022-12-22T06:45:13.962Z,64.80
2022-12-22T06:48:17.325Z,75.53
2022-12-22T06:51:20.477Z,70.45
2022-12-22T06:54:26.262Z,73.17
2022-12-22T06:57:30.259Z,64.40
2022-12-22T07:00:34.117Z,62.28
2022-12-22T07:03:37.377Z,62.27
2022-12-22T07:06:40.829Z,65.75
2022-12-22T07:09:44.050Z,65.85
2022-12-22T07:12:47.271Z,72.93
2022-12-22T07:15:59.678Z,76.82
2022-12-22T07:19:04.045Z,70.45
2022-12-22T07:22:07.471Z,64.20
2022-12-22T07:25:10.754Z,61.40
2022-12-22T07:28:18.566Z,62.55
2022-12-22T07:31:24.003Z,56.33
2022-12-22T07:34:27.414Z,64.45
2022-12-22T07:37:30.623Z,65.05
2022-12-22T07:40:41.362Z,56.30
2022-12-22T07:43:45.411Z,64.30
2022-12-22T07:46:48.861Z,62.67
2022-12-22T07:50:10.910Z,64.70
2022-12-22T07:53:14.361Z,57.15
2022-12-22T07:56:17.564Z,62.13
2022-12-22T07:59:23.970Z,65.20
2022-12-22T08:02:27.353Z,65.47
2022-12-22T08:05:31.162Z,60.22
2022-12-22T08:08:35.043Z,61.78
2022-12-22T08:11:38.319Z,63.53
2022-12-22T08:14:45.823Z,70.20
2022-12-22T08:17:48.989Z,72.53
2022-12-22T08:20:55.320Z,67.37
2022-12-22T08:23:58.624Z,64.32
2022-12-22T08:27:12.472Z,68.68
2022-12-22T08:30:15.942Z,72.20
2022-12-22T08:33:23.775Z,73.50
2022-12-22T08:36:27.384Z,69.50
2022-12-22T08:39:35.167Z,73.80
2022-12-22T08:42:39.412Z,57.97
2022-12-22T08:45:43.174Z,66.18
2022-12-22T08:48:46.515Z,66.18
2022-12-22T08:51:50.063Z,63.78
2022-12-22T08:54:56.287Z,63.10
2022-12-22T08:57:59.544Z,65.32
2022-12-22T09:01:02.923Z,62.08
2022-12-22T09:04:09.807Z,63.67
2022-12-22T09:07:13.041Z,65.50
2022-12-22T09:10:16.554Z,66.88
2022-12-22T09:13:19.971Z,73.03
2022-12-22T09:16:25.629Z,66.90
2022-12-22T09:19:28.881Z,64.63
2022-12-22T09:22:32.166Z,62.17
2022-12-22T09:25:35.640Z,60.17
2022-12-22T09:28:42.626Z,63.38
2022-12-22T09:31:50.017Z,63.63
2022-12-22T09:34:53.684Z,62.28
2022-12-22T09:37:56.877Z,63.92
2022-12-22T09:41:00.171Z,70.00
2022-12-22T09:44:14.721Z,69.03
2022-12-22T09:47:17.877Z,67.78
2022-12-22T09:50:25.580Z,72.85
2022-12-22T09:53:28.874Z,62.00
2022-12-22T09:56:32.135Z,63.80
2022-12-22T09:59:35.899Z,66.70
2022-12-22T10:03:10.803Z,62.67
2022-12-22T10:06:21.569Z,65.60
2022-12-22T10:09:48.811Z,68.30
2022-12-22T10:12:51.781Z,67.28
2022-12-22T10:15:56.024Z,59.97
2022-12-22T10:19:10.637Z,68.65
2022-12-22T10:22:47.763Z,64.50
2022-12-22T10:29:21.073Z,55.47
2022-12-22T10:32:24.359Z,53.17
2022-12-22T10:35:35.622Z,57.75
2022-12-22T10:38:52.637Z,60.08
2022-12-22T10:42:00.759Z,55.53
2022-12-22T10:45:05.018Z,69.97
2022-12-22T10:48:08.175Z,59.70
2022-12-22T10:51:14.933Z,54.13
2022-12-22T10:54:29.993Z,59.00
2022-12-22T10:57:33.220Z,63.67
2022-12-22T11:00:38.394Z,62.22
2022-12-22T11:03:41.718Z,58.03
2022-12-22T11:06:45.779Z,53.15
2022-12-22T11:09:49.195Z,45.40
2022-12-22T11:13:28.793Z,54.42
2022-12-22T11:16:32.002Z,59.83
2022-12-22T11:19:44.058Z,60.58
2022-12-22T11:22:51.595Z,54.80
2022-12-22T11:26:34.545Z,53.47
2022-12-22T11:30:00.496Z,60.20
2022-12-22T11:33:29.238Z,58.92
2022-12-22T11:37:03.079Z,58.73
2022-12-22T11:40:28.884Z,57.95
2022-12-22T11:43:52.838Z,53.67
2022-12-22T11:47:03.305Z,60.08
2022-12-22T11:50:58.730Z,56.57
2022-12-22T11:53:47.449Z,53.58
2022-12-22T11:57:04.968Z,57.17
2022-12-22T12:00:08.236Z,61.00
2022-12-22T12:03:45.591Z,59.65
2022-12-22T12:07:07.425Z,59.53
2022-12-22T12:10:28.680Z,56.17
2022-12-22T12:13:43.570Z,57.47
2022-12-22T12:16:49.733Z,56.20
2022-12-22T12:20:30.239Z,54.90
2022-12-22T12:24:01.338Z,55.80
2022-12-22T12:27:07.222Z,52.55
2022-12-22T12:34:03.763Z,52.70
2022-12-22T12:37:26.393Z,52.90
2022-12-22T12:41:02.846Z,54.95
2022-12-22T12:44:10.977Z,55.90
2022-12-22T12:47:25.029Z,61.55
2022-12-22T12:50:35.509Z,49.87
2022-12-22T12:54:17.402Z,52.70
2022-12-22T12:57:56.899Z,52.42
2022-12-22T13:01:00.481Z,51.85
2022-12-22T13:04:05.454Z,46.85
2022-12-22T13:07:08.884Z,52.90
2022-12-22T13:10:27.244Z,51.95
2022-12-22T13:13:36.347Z,49.30
2022-12-22T13:16:40.608Z,46.72
2022-12-22T13:19:48.410Z,49.10
2022-12-22T13:22:56.420Z,48.70
2022-12-22T13:26:06.599Z,53.03
2022-12-22T13:29:47.832Z,47.83
2022-12-22T13:32:53.029Z,50.45
2022-12-22T13:35:59.382Z,57.40
2022-12-22T13:39:05.935Z,48.42
2022-12-22T13:42:13.716Z,55.40
2022-12-22T13:45:31.349Z,52.35
2022-12-22T13:48:44.678Z,48.93
2022-12-22T13:51:49.333Z,54.63
2022-12-22T13:54:53.451Z,52.25
2022-12-22T13:58:07.675Z,57.53
2022-12-22T14:01:10.904Z,51.73
2022-12-22T14:04:14.937Z,53.90
2022-12-22T14:07:19.963Z,55.25
2022-12-22T14:10:35.884Z,51.95
2022-12-22T14:13:39.699Z,55.07
2022-12-22T14:16:48.167Z,49.08
2022-12-22T14:19:57.062Z,52.13
2022-12-22T14:23:08.369Z,49.20
2022-12-22T14:26:20.514Z,51.73
2022-12-22T14:29:27.611Z,49.45
2022-12-22T14:32:55.267Z,47.38
2022-12-22T14:36:15.545Z,50.33
2022-12-22T14:39:28.343Z,50.63
2022-12-22T14:42:33.479Z,54.20
2022-12-22T14:45:36.790Z,50.72
2022-12-22T14:48:46.565Z,55.72
2022-12-22T14:52:01.328Z,50.30
2022-12-22T14:55:06.971Z,54.88
2022-12-22T14:58:16.014Z,52.08
2022-12-22T15:01:24.883Z,57.63
2022-12-22T15:04:29.033Z,51.70
2022-12-22T15:08:10.333Z,53.05
2022-12-22T15:11:11.637Z,49.80
2022-12-22T15:14:18.796Z,51.67
2022-12-22T15:17:25.984Z,50.10
2022-12-22T15:20:38.527Z,54.00
2022-12-22T15:23:45.227Z,53.53
2022-12-22T15:26:48.430Z,52.58
2022-12-22T15:29:54.219Z,50.73
2022-12-22T15:32:57.549Z,48.85
2022-12-22T15:36:01.188Z,52.88
2022-12-22T15:39:04.368Z,58.88
2022-12-22T15:42:07.703Z,55.10
2022-12-22T15:45:11.479Z,50.25
2022-12-22T15:48:31.625Z,54.22
2022-12-22T15:51:34.893Z,52.03
2022-12-22T15:54:41.054Z,50.63
2022-12-22T15:57:44.821Z,48.92
2022-12-22T16:00:50.684Z,55.40
2022-12-22T16:03:53.881Z,46.90
2022-12-22T16:06:58.818Z,50.27
2022-12-22T16:10:02.654Z,53.47
2022-12-22T16:13:10.218Z,46.53
2022-12-22T16:16:13.603Z,50.08
2022-12-22T16:19:18.240Z,47.50
2022-12-22T16:22:31.024Z,49.55
2022-12-22T16:25:36.903Z,48.30
2022-12-22T16:28:40.234Z,48.78
2022-12-22T16:31:43.481Z,50.77
2022-12-22T16:34:46.764Z,52.00
2022-12-22T16:37:50.659Z,55.78
2022-12-22T16:40:54.828Z,47.90
2022-12-22T16:44:05.742Z,55.50
2022-12-22T16:47:25.543Z,48.03
2022-12-22T16:50:33.064Z,49.63
2022-12-22T16:53:36.334Z,58.38
2022-12-22T16:56:41.871Z,56.47
2022-12-22T16:59:45.101Z,53.33
2022-12-22T17:02:53.580Z,53.72
2022-12-22T17:06:03.275Z,55.60
2022-12-22T17:09:13.678Z,54.70
2022-12-22T17:12:23.754Z,61.05
2022-12-22T17:15:27.075Z,53.90
2022-12-22T17:18:37.420Z,53.80
2022-12-22T17:21:40.636Z,54.20
2022-12-22T17:24:43.883Z,50.55
2022-12-22T17:27:47.653Z,53.75
2022-12-22T17:30:53.015Z,56.37
2022-12-22T17:33:57.107Z,56.42
2022-12-22T17:37:00.343Z,54.53
2022-12-22T17:40:05.529Z,56.95
2022-12-22T17:43:13.867Z,57.30
2022-12-22T17:46:19.963Z,56.58
2022-12-22T17:49:23.311Z,61.08
2022-12-22T17:52:28.158Z,58.50
2022-12-22T17:56:06.384Z,63.20
2022-12-22T17:58:55.062Z,56.88
2022-12-22T18:01:58.913Z,56.63
2022-12-22T18:05:02.111Z,57.25
2022-12-22T18:08:05.735Z,52.53
2022-12-22T18:11:09.378Z,53.33
2022-12-22T18:14:14.148Z,55.08
2022-12-22T18:17:35.213Z,56.83
2022-12-22T18:20:40.531Z,53.33
2022-12-22T18:23:50.008Z,49.55
2022-12-22T18:26:53.763Z,47.20
2022-12-22T18:29:57.095Z,49.83
2022-12-22T18:33:00.568Z,55.83
2022-12-22T18:36:04.335Z,53.33
2022-12-22T18:39:17.165Z,53.30
2022-12-22T18:42:23.600Z,54.58
2022-12-22T18:45:29.685Z,65.57
2022-12-22T18:48:33.270Z,49.95
2022-12-22T18:51:38.098Z,53.65
2022-12-22T18:54:41.450Z,56.83
2022-12-22T18:57:47.478Z,53.63
2022-12-22T19:00:52.973Z,56.80
2022-12-22T19:03:57.392Z,52.72
2022-12-22T19:07:00.688Z,55.78
2022-12-22T19:10:04.481Z,55.47
2022-12-22T19:13:40.853Z,45.65
2022-12-22T19:16:44.771Z,46.85
2022-12-22T19:19:48.419Z,52.30
2022-12-22T19:22:52.423Z,47.73
2022-12-22T19:26:06.995Z,40.65
2022-12-22T19:29:14.107Z,45.00
2022-12-22T19:32:25.292Z,54.90
2022-12-22T19:35:30.810Z,57.23
2022-12-22T19:38:35.961Z,63.38
2022-12-22T19:41:46.738Z,59.53
2022-12-22T19:44:50.060Z,64.40
2022-12-22T19:47:55.443Z,64.13
2022-12-22T19:51:00.322Z,57.78
2022-12-22T19:54:03.734Z,58.40
2022-12-22T19:57:17.560Z,66.97
2022-12-22T20:00:25.327Z,63.33
2022-12-22T20:03:28.607Z,69.33
2022-12-22T20:06:31.806Z,64.68
2022-12-22T20:09:34.970Z,64.13
2022-12-22T20:12:42.311Z,66.70
2022-12-22T20:15:46.819Z,65.70
2022-12-22T20:18:50.238Z,64.75
2022-12-22T20:21:53.628Z,70.45
2022-12-22T20:24:57.196Z,64.67
2022-12-22T20:28:00.616Z,70.15
2022-12-22T20:31:09.106Z,68.68
2022-12-22T20:34:12.686Z,72.57
2022-12-22T20:37:17.811Z,67.47
2022-12-22T20:40:30.730Z,70.40
2022-12-22T20:43:36.218Z,73.97
2022-12-22T20:46:40.350Z,68.68
2022-12-22T20:49:44.297Z,70.93
2022-12-22T20:52:48.167Z,75.95
2022-12-22T20:55:51.752Z,77.03
2022-12-22T20:58:56.867Z,78.63
2022-12-22T21:02:00.319Z,76.83
2022-12-22T21:05:03.703Z,75.32
2022-12-22T21:08:18.274Z,82.38
2022-12-22T21:11:23.514Z,71.20
2022-12-22T21:14:26.656Z,69.83
2022-12-22T21:17:29.881Z,68.72
2022-12-22T21:20:33.709Z,67.97
2022-12-22T21:23:37.015Z,66.13
2022-12-22T21:26:49.103Z,73.50
2022-12-22T21:29:52.253Z,72.90
2022-12-22T21:32:55.927Z,67.15
2022-12-22T21:36:02.882Z,69.28
2022-12-22T21:39:23.692Z,73.07
2022-12-22T21:42:26.841Z,78.07
2022-12-22T21:45:31.710Z,73.22
2022-12-22T21:48:35.540Z,77.15
2022-12-22T21:51:40.979Z,77.90
2022-12-22T21:54:44.185Z,81.30
2022-12-22T21:57:47.882Z,79.93
2022-12-22T22:00:52.559Z,80.50
2022-12-22T22:03:55.751Z,82.85
2022-12-22T22:06:58.966Z,84.55
2022-12-22T22:10:02.213Z,89.53
2022-12-22T22:13:06.338Z,89.40
2022-12-22T22:16:10.678Z,92.72
2022-12-22T22:19:14.027Z,85.50
2022-12-22T22:22:17.352Z,89.47
2022-12-22T22:25:21.819Z,82.53
2022-12-22T22:28:25.224Z,93.88
2022-12-22T22:31:28.502Z,90.33
2022-12-22T22:34:31.796Z,91.15
2022-12-22T22:37:35.028Z,91.57
2022-12-22T22:40:38.847Z,83.45
2022-12-22T22:43:42.021Z,93.33
2022-12-22T22:46:45.350Z,98.55
2022-12-22T22:49:49.148Z,93.57
2022-12-22T22:52:52.449Z,90.85
2022-12-22T22:56:00.842Z,91.78
2022-12-22T22:59:04.141Z,94.22
2022-12-22T23:02:07.674Z,91.70
2022-12-22T23:05:15.498Z,92.40
2022-12-22T23:08:23.970Z,90.47
2022-12-22T23:11:27.235Z,88.88
2022-12-22T23:14:30.595Z,92.55
2022-12-22T23:17:33.866Z,94.82
2022-12-22T23:20:37.234Z,91.90
2022-12-22T23:23:40.610Z,94.28
2022-12-22T23:26:43.844Z,89.75
2022-12-22T23:29:47.037Z,97.90
2022-12-22T23:32:50.513Z,96.60
2022-12-22T23:35:53.875Z,103.03
2022-12-22T23:38:57.153Z,91.63
2022-12-22T23:42:00.555Z,92.22
2022-12-22T23:45:04.262Z,103.93
2022-12-22T23:48:08.742Z,101.78
2022-12-22T23:51:12.728Z,106.55
2022-12-22T23:54:16.241Z,106.00
2022-12-22T23:57:19.489Z,107.43
